createdAt,value
2018-11-27T00:00:07.594Z,38.60
2018-11-27T00:02:35.769Z,37.73
2018-11-27T00:05:04.074Z,39.27
2018-11-27T00:07:32.270Z,37.23
2018-11-27T00:10:00.460Z,36.10
2018-11-27T00:12:28.658Z,36.90
2018-11-27T00:14:56.862Z,36.00
2018-11-27T00:17:25.026Z,37.13
2018-11-27T00:19:53.209Z,36.83
2018-11-27T00:22:21.383Z,37.77
2018-11-27T00:24:49.576Z,37.13
2018-11-27T00:27:17.742Z,38.80
2018-11-27T00:29:45.986Z,34.30
2018-11-27T00:32:14.158Z,34.63
2018-11-27T00:34:42.340Z,36.03
2018-11-27T00:37:10.527Z,36.57
2018-11-27T00:39:38.693Z,36.00
2018-11-27T00:42:06.909Z,37.00
2018-11-27T00:44:35.084Z,34.90
2018-11-27T00:47:03.294Z,34.83
2018-11-27T00:49:31.488Z,35.63
2018-11-27T00:51:59.669Z,35.53
2018-11-27T00:54:27.915Z,36.50
2018-11-27T00:56:56.117Z,36.47
2018-11-27T00:59:24.282Z,34.17
2018-11-27T01:01:52.467Z,32.67
2018-11-27T01:04:20.648Z,33.73
2018-11-27T01:06:48.822Z,33.57
2018-11-27T01:09:17.075Z,31.73
2018-11-27T01:11:45.285Z,31.67
2018-11-27T01:14:13.461Z,33.30
2018-11-27T01:16:41.658Z,33.77
2018-11-27T01:19:09.885Z,31.77
2018-11-27T01:21:38.057Z,30.63
2018-11-27T01:24:06.493Z,29.47
2018-11-27T01:26:34.695Z,32.17
2018-11-27T01:29:02.850Z,30.97
2018-11-27T01:31:31.029Z,30.73
2018-11-27T01:33:59.216Z,30.97
2018-11-27T01:36:27.397Z,28.90
2018-11-27T01:38:55.590Z,29.10
2018-11-27T01:41:23.758Z,29.60
2018-11-27T01:43:51.941Z,30.07
2018-11-27T01:46:20.148Z,30.13
2018-11-27T01:48:48.358Z,27.47
2018-11-27T01:51:16.554Z,27.90
2018-11-27T01:53:44.740Z,26.70
2018-11-27T01:56:12.930Z,27.50
2018-11-27T01:58:41.115Z,27.27
2018-11-27T02:01:09.293Z,25.40
2018-11-27T02:03:37.533Z,26.70
2018-11-27T02:06:06.177Z,26.17
2018-11-27T02:08:34.371Z,25.77
2018-11-27T02:11:02.581Z,25.17
2018-11-27T02:13:30.756Z,26.40
2018-11-27T02:15:58.948Z,23.50
2018-11-27T02:18:27.141Z,22.43
2018-11-27T02:20:55.365Z,22.57
2018-11-27T02:23:23.542Z,23.57
2018-11-27T02:25:52.146Z,23.30
2018-11-27T02:28:20.321Z,23.60
2018-11-27T02:30:48.518Z,22.80
2018-11-27T02:33:16.748Z,22.07
2018-11-27T02:35:44.921Z,22.13
2018-11-27T02:38:13.102Z,23.37
2018-11-27T02:40:41.302Z,21.30
2018-11-27T02:43:09.477Z,21.20
2018-11-27T02:45:37.650Z,21.40
2018-11-27T02:48:07.180Z,20.50
2018-11-27T02:50:35.367Z,20.97
2018-11-27T02:53:03.747Z,20.37
2018-11-27T02:55:31.934Z,19.77
2018-11-27T02:58:00.133Z,19.50
2018-11-27T03:00:28.731Z,19.30
2018-11-27T03:02:56.973Z,20.27
2018-11-27T03:05:29.353Z,19.87
2018-11-27T03:07:57.575Z,18.90
2018-11-27T03:10:25.762Z,18.37
2018-11-27T03:12:53.929Z,19.00
2018-11-27T03:15:22.143Z,18.73
2018-11-27T03:17:50.314Z,19.37
2018-11-27T03:20:18.933Z,18.57
2018-11-27T03:22:47.137Z,18.40
2018-11-27T03:25:19.213Z,17.70
2018-11-27T03:27:48.424Z,20.57
2018-11-27T03:30:17.639Z,17.97
2018-11-27T03:32:45.937Z,18.30
2018-11-27T03:35:16.062Z,18.80
2018-11-27T03:37:44.626Z,18.30
2018-11-27T03:40:15.733Z,20.03
2018-11-27T03:42:43.966Z,18.30
2018-11-27T03:45:13.248Z,18.50
2018-11-27T03:47:41.474Z,18.20
2018-11-27T03:50:14.913Z,19.20
2018-11-27T03:52:43.093Z,17.90
2018-11-27T03:55:12.104Z,17.87
2018-11-27T03:57:40.309Z,18.93
2018-11-27T04:00:15.905Z,19.10
2018-11-27T04:02:44.581Z,18.70
2018-11-27T04:05:13.357Z,18.00
2018-11-27T04:07:41.539Z,20.37
2018-11-27T04:10:14.179Z,18.33
2018-11-27T04:12:42.382Z,19.80
2018-11-27T04:15:11.236Z,19.67
2018-11-27T04:17:39.419Z,19.17
2018-11-27T04:20:08.977Z,16.67
2018-11-27T04:22:37.439Z,18.27
2018-11-27T04:25:09.196Z,17.20
2018-11-27T04:27:37.379Z,19.33
2018-11-27T04:30:07.737Z,18.00
2018-11-27T04:32:35.915Z,17.90
2018-11-27T04:35:04.284Z,18.30
2018-11-27T04:37:32.446Z,18.83
2018-11-27T04:40:00.654Z,19.00
2018-11-27T04:42:28.833Z,19.23
2018-11-27T04:44:57.038Z,19.17
2018-11-27T04:47:25.218Z,21.40
2018-11-27T04:49:53.414Z,19.53
2018-11-27T04:52:21.595Z,22.50
2018-11-27T04:54:49.816Z,19.83
2018-11-27T04:57:17.981Z,20.20
2018-11-27T04:59:46.174Z,20.17
2018-11-27T05:02:14.356Z,20.27
2018-11-27T05:04:42.529Z,19.47
2018-11-27T05:07:10.702Z,21.17
2018-11-27T05:09:38.877Z,18.90
2018-11-27T05:12:07.053Z,21.67
2018-11-27T05:14:35.238Z,20.97
2018-11-27T05:17:03.392Z,21.23
2018-11-27T05:19:31.614Z,20.30
2018-11-27T05:21:59.850Z,20.40
2018-11-27T05:24:28.111Z,20.10
2018-11-27T05:26:56.290Z,19.80
2018-11-27T05:29:24.484Z,20.10
2018-11-27T05:31:52.700Z,20.43
2018-11-27T05:34:20.892Z,20.63
2018-11-27T05:36:49.104Z,20.70
2018-11-27T05:39:17.301Z,19.93
2018-11-27T05:41:45.513Z,20.40
2018-11-27T05:44:13.705Z,19.97
2018-11-27T05:46:41.906Z,20.13
2018-11-27T05:49:10.134Z,19.77
2018-11-27T05:51:39.062Z,18.07
2018-11-27T05:54:07.244Z,17.93
2018-11-27T05:56:35.483Z,18.63
2018-11-27T05:59:03.706Z,20.00
2018-11-27T06:01:31.878Z,19.70
2018-11-27T06:04:00.062Z,20.80
2018-11-27T06:06:28.257Z,19.20
2018-11-27T06:08:57.004Z,21.47
2018-11-27T06:11:24.809Z,20.90
2018-11-27T06:13:53.049Z,20.27
2018-11-27T06:16:21.401Z,20.60
2018-11-27T06:18:49.588Z,20.57
2018-11-27T06:21:17.793Z,21.87
2018-11-27T06:23:46.003Z,21.00
2018-11-27T06:26:14.191Z,21.43
2018-11-27T06:28:42.407Z,20.13
2018-11-27T06:31:10.604Z,19.80
2018-11-27T06:33:38.934Z,21.40
2018-11-27T06:36:07.329Z,22.23
2018-11-27T06:38:35.685Z,22.00
2018-11-27T06:41:03.909Z,22.30
2018-11-27T06:43:32.137Z,23.73
2018-11-27T06:46:00.345Z,23.73
2018-11-27T06:48:28.577Z,22.03
2018-11-27T06:50:56.761Z,23.70
2018-11-27T06:53:24.989Z,23.57
2018-11-27T06:55:54.064Z,23.90
2018-11-27T06:58:22.274Z,21.60
2018-11-27T07:00:50.518Z,22.97
2018-11-27T07:03:18.738Z,23.10
2018-11-27T07:05:46.921Z,20.90
2018-11-27T07:08:15.205Z,21.97
2018-11-27T07:10:44.670Z,22.10
2018-11-27T07:13:15.421Z,22.30
2018-11-27T07:15:43.705Z,23.77
2018-11-27T07:18:11.936Z,23.47
2018-11-27T07:20:40.082Z,23.83
2018-11-27T07:23:08.333Z,22.77
2018-11-27T07:25:37.009Z,23.40
2018-11-27T07:28:05.328Z,22.57
2018-11-27T07:30:33.489Z,24.07
2018-11-27T07:33:01.686Z,22.77
2018-11-27T07:35:29.926Z,22.27
2018-11-27T07:37:58.047Z,23.50
2018-11-27T07:40:27.507Z,22.90
2018-11-27T07:42:58.994Z,24.10
2018-11-27T07:45:27.179Z,23.23
2018-11-27T07:47:55.359Z,25.13
2018-11-27T07:50:23.542Z,23.17
2018-11-27T07:52:51.726Z,22.80
2018-11-27T07:55:21.058Z,22.53
2018-11-27T07:57:49.617Z,22.93
2018-11-27T08:00:21.294Z,23.53
2018-11-27T08:02:51.556Z,23.93
2018-11-27T08:05:22.821Z,23.40
2018-11-27T08:07:53.001Z,23.00
2018-11-27T08:10:22.321Z,23.90
2018-11-27T08:12:50.521Z,22.90
2018-11-27T08:15:20.021Z,24.10
2018-11-27T08:17:48.254Z,21.03
2018-11-27T08:20:21.469Z,21.93
2018-11-27T08:22:49.673Z,21.20
2018-11-27T08:25:17.854Z,20.90
2018-11-27T08:27:46.039Z,22.13
2018-11-27T08:30:16.471Z,22.00
2018-11-27T08:32:44.682Z,21.80
2018-11-27T08:35:20.790Z,21.20
2018-11-27T08:37:49.954Z,21.63
2018-11-27T08:40:19.390Z,22.00
2018-11-27T08:42:47.604Z,19.87
2018-11-27T08:45:18.684Z,21.97
2018-11-27T08:47:47.645Z,21.30
2018-11-27T08:50:18.035Z,21.37
2018-11-27T08:53:03.016Z,19.80
2018-11-27T08:55:40.523Z,20.10
2018-11-27T08:58:11.614Z,17.90
2018-11-27T09:00:39.796Z,18.67
2018-11-27T09:03:07.994Z,19.43
2018-11-27T09:05:36.169Z,19.40
2018-11-27T09:08:04.343Z,19.23
2018-11-27T09:10:32.525Z,18.27
2018-11-27T09:13:01.037Z,17.00
2018-11-27T09:15:28.936Z,17.23
2018-11-27T09:17:58.879Z,18.17
2018-11-27T09:20:27.048Z,18.80
2018-11-27T09:22:55.229Z,18.00
2018-11-27T09:25:23.421Z,18.70
2018-11-27T09:27:51.601Z,19.40
2018-11-27T09:30:21.444Z,18.73
2018-11-27T09:32:49.725Z,18.90
2018-11-27T09:35:17.979Z,19.10
2018-11-27T09:37:46.166Z,18.20
2018-11-27T09:40:16.553Z,19.00
2018-11-27T09:42:44.741Z,17.40
2018-11-27T09:45:14.177Z,17.63
2018-11-27T09:47:43.003Z,18.13
2018-11-27T09:50:12.264Z,16.03
2018-11-27T09:52:40.549Z,16.90
2018-11-27T09:55:16.489Z,16.13
2018-11-27T09:57:44.723Z,17.67
2018-11-27T10:00:30.208Z,17.37
2018-11-27T10:03:02.620Z,16.63
2018-11-27T10:05:30.810Z,17.07
2018-11-27T10:07:58.992Z,16.27
2018-11-27T10:10:27.153Z,16.20
2018-11-27T10:12:55.338Z,16.83
2018-11-27T10:15:24.629Z,15.97
2018-11-27T10:17:56.081Z,16.30
2018-11-27T10:20:25.418Z,16.30
2018-11-27T10:22:53.610Z,16.97
2018-11-27T10:25:21.805Z,17.00
2018-11-27T10:27:50.018Z,17.70
2018-11-27T10:30:23.446Z,17.27
2018-11-27T10:32:52.810Z,16.07
2018-11-27T10:35:24.067Z,16.50
2018-11-27T10:37:52.245Z,16.20
2018-11-27T10:40:20.458Z,17.70
2018-11-27T10:42:48.733Z,16.77
2018-11-27T10:45:17.858Z,16.30
2018-11-27T10:47:47.150Z,16.50
2018-11-27T10:50:16.174Z,16.77
2018-11-27T10:52:45.557Z,16.50
2018-11-27T10:55:14.705Z,17.40
2018-11-27T10:57:42.961Z,16.73
2018-11-27T11:00:34.769Z,16.93
2018-11-27T11:03:08.269Z,17.17
2018-11-27T11:05:37.432Z,16.73
2018-11-27T11:08:05.661Z,17.93
2018-11-27T11:10:33.837Z,18.70
2018-11-27T11:13:02.052Z,17.37
2018-11-27T11:15:30.196Z,17.83
2018-11-27T11:17:58.399Z,16.57
2018-11-27T11:20:26.580Z,17.70
2018-11-27T11:22:54.773Z,17.73
2018-11-27T11:25:24.084Z,18.00
2018-11-27T11:27:54.576Z,17.83
2018-11-27T11:30:23.240Z,18.53
2018-11-27T11:32:51.553Z,17.43
2018-11-27T11:35:19.893Z,17.37
2018-11-27T13:48:33.735Z,14.93
2018-11-27T13:51:02.181Z,15.80
2018-11-27T13:53:30.436Z,15.43
2018-11-27T13:55:58.779Z,16.10
2018-11-27T13:58:27.018Z,15.50
2018-11-27T14:00:55.298Z,16.13
2018-11-27T14:03:23.583Z,15.00
2018-11-27T14:05:51.864Z,15.10
2018-11-27T14:08:20.172Z,15.83
2018-11-27T14:10:48.515Z,15.00
2018-11-27T14:13:16.789Z,14.80
2018-11-27T14:15:45.123Z,15.23
2018-11-27T14:18:13.432Z,14.70
2018-11-27T14:20:41.793Z,15.83
2018-11-27T14:23:10.066Z,15.60
2018-11-27T14:25:38.370Z,14.40
2018-11-27T14:28:06.628Z,13.93
2018-11-27T14:30:34.896Z,13.57
2018-11-27T14:33:03.233Z,13.40
2018-11-27T14:35:31.487Z,12.73
2018-11-27T14:37:59.973Z,14.80
2018-11-27T14:40:28.514Z,13.73
2018-11-27T14:42:56.745Z,14.30
2018-11-27T14:45:26.129Z,15.17
2018-11-27T14:47:56.201Z,14.10
2018-11-27T14:50:24.398Z,15.50
2018-11-27T14:52:52.604Z,15.17
2018-11-27T14:55:24.146Z,13.70
2018-11-27T14:57:52.390Z,14.23
2018-11-27T15:00:21.676Z,14.40
2018-11-27T15:02:49.870Z,13.20
2018-11-27T15:05:19.718Z,12.97
2018-11-27T15:07:47.886Z,12.90
2018-11-27T15:10:16.049Z,13.43
2018-11-27T15:12:44.218Z,13.60
2018-11-27T15:15:13.398Z,12.77
2018-11-27T15:17:41.608Z,13.40
2018-11-27T15:20:17.434Z,13.10
2018-11-27T15:22:45.769Z,13.80
2018-11-27T15:25:13.999Z,13.80
2018-11-27T15:27:42.165Z,13.37
2018-11-27T15:30:12.843Z,14.07
2018-11-27T15:32:41.017Z,14.70
2018-11-27T15:35:10.029Z,13.90
2018-11-27T15:37:38.206Z,14.47
2018-11-27T15:40:24.951Z,13.73
2018-11-27T15:42:53.344Z,14.30
2018-11-27T15:45:24.523Z,14.23
2018-11-27T15:47:52.705Z,15.53
2018-11-27T15:50:20.890Z,16.80
2018-11-27T15:52:49.089Z,17.47
2018-11-27T15:55:27.194Z,15.87
2018-11-27T15:57:56.935Z,16.97
2018-11-27T16:00:25.106Z,17.50
2018-11-27T16:02:53.269Z,17.13
2018-11-27T16:05:21.450Z,16.43
2018-11-27T16:07:49.597Z,17.77
2018-11-27T16:10:18.785Z,15.90
2018-11-27T16:12:46.960Z,15.37
2018-11-27T16:15:16.154Z,16.63
2018-11-27T16:17:44.349Z,16.63
2018-11-27T16:20:21.737Z,16.27
2018-11-27T16:22:50.886Z,15.50
2018-11-27T16:25:20.301Z,15.37
2018-11-27T16:27:48.469Z,16.43
2018-11-27T16:30:21.765Z,15.77
2018-11-27T16:32:49.981Z,14.80
2018-11-27T16:35:18.157Z,14.80
2018-11-27T16:37:47.702Z,14.73
2018-11-27T16:40:19.182Z,14.60
2018-11-27T16:42:47.391Z,15.83
2018-11-27T16:45:18.777Z,14.83
2018-11-27T16:47:47.210Z,13.90
2018-11-27T16:50:16.161Z,13.43
2018-11-27T16:52:44.622Z,13.40
2018-11-27T16:55:13.818Z,14.67
2018-11-27T16:57:42.341Z,15.10
2018-11-27T17:00:15.382Z,14.90
2018-11-27T17:02:43.753Z,14.53
2018-11-27T17:05:11.993Z,15.83
2018-11-27T17:07:40.314Z,16.80
2018-11-27T17:10:11.348Z,15.60
2018-11-27T17:12:39.705Z,16.43
2018-11-27T17:15:11.029Z,14.83
2018-11-27T17:17:39.376Z,16.90
2018-11-27T17:20:13.493Z,15.77
2018-11-27T17:22:41.811Z,15.47
2018-11-27T17:25:10.922Z,17.40
2018-11-27T17:27:39.246Z,15.20
2018-11-27T17:30:12.374Z,16.73
2018-11-27T17:32:40.730Z,15.13
2018-11-27T17:35:10.528Z,15.13
2018-11-27T17:37:38.777Z,16.50
2018-11-27T17:40:09.733Z,16.50
2018-11-27T17:42:39.369Z,16.07
2018-11-27T17:45:13.536Z,16.50
2018-11-27T17:47:42.101Z,15.87
2018-11-27T17:50:12.702Z,13.80
2018-11-27T17:52:41.224Z,16.73
2018-11-27T17:55:10.477Z,14.47
2018-11-27T17:57:38.664Z,15.37
2018-11-27T18:00:16.329Z,16.27
2018-11-27T18:02:46.224Z,17.27
2018-11-27T18:05:14.408Z,16.60
2018-11-27T18:07:42.581Z,17.70
2018-11-27T18:10:11.530Z,16.50
2018-11-27T18:12:39.670Z,16.67
2018-11-27T18:15:10.939Z,15.53
2018-11-27T18:17:39.089Z,16.90
2018-11-27T18:20:08.800Z,16.50
2018-11-27T18:22:37.026Z,17.27
2018-11-27T18:25:05.886Z,16.00
2018-11-27T18:27:34.342Z,17.67
2018-11-27T18:30:02.839Z,18.83
2018-11-27T18:32:31.295Z,18.60
2018-11-27T18:34:59.573Z,18.57
2018-11-27T18:37:27.875Z,18.70
2018-11-27T18:39:56.514Z,17.40
2018-11-27T18:42:25.574Z,15.70
2018-11-27T18:44:53.957Z,18.33
2018-11-27T18:47:22.525Z,18.80
2018-11-27T18:49:50.745Z,17.13
2018-11-27T18:52:20.031Z,18.67
2018-11-27T18:54:48.225Z,19.00
2018-11-27T18:57:16.505Z,18.00
2018-11-27T18:59:45.890Z,19.73
2018-11-27T19:02:14.161Z,18.77
2018-11-27T19:04:42.501Z,20.10
2018-11-27T19:07:10.836Z,20.30
2018-11-27T19:09:39.182Z,20.73
2018-11-27T19:12:07.469Z,18.33
2018-11-27T19:14:35.729Z,19.23
2018-11-27T19:17:04.093Z,19.93
2018-11-27T19:19:32.459Z,19.23
2018-11-27T19:22:00.910Z,18.90
2018-11-27T19:24:29.680Z,20.67
2018-11-27T19:26:58.024Z,19.77
2018-11-27T19:29:26.461Z,20.20
2018-11-27T19:31:55.178Z,18.50
2018-11-27T19:34:25.296Z,19.20
2018-11-27T19:36:53.710Z,18.70
2018-11-27T19:39:22.341Z,19.17
2018-11-27T19:41:50.738Z,18.73
2018-11-27T19:44:19.362Z,20.80
2018-11-27T19:46:47.913Z,19.97
2018-11-27T19:49:16.107Z,21.40
2018-11-27T19:51:44.513Z,19.87
2018-11-27T19:54:12.759Z,21.37
2018-11-27T19:56:40.944Z,20.53
2018-11-27T19:59:09.118Z,19.00
2018-11-27T20:01:37.299Z,19.60
2018-11-27T20:04:05.846Z,20.60
2018-11-27T20:06:34.105Z,20.70
2018-11-27T20:09:02.292Z,19.30
2018-11-27T20:11:30.744Z,19.13
2018-11-27T20:13:58.950Z,19.90
2018-11-27T20:16:27.194Z,20.07
2018-11-27T20:18:55.370Z,21.00
2018-11-27T20:21:23.589Z,18.90
2018-11-27T20:23:51.769Z,19.83
2018-11-27T20:26:19.961Z,20.57
2018-11-27T20:28:48.144Z,19.13
2018-11-27T20:31:16.370Z,18.40
2018-11-27T20:33:44.554Z,19.10
2018-11-27T20:36:12.772Z,19.60
2018-11-27T20:38:41.076Z,18.90
2018-11-27T20:41:09.290Z,20.20
2018-11-27T20:43:37.454Z,20.47
2018-11-27T20:46:06.050Z,20.73
2018-11-27T20:48:34.308Z,21.37
2018-11-27T20:51:03.930Z,20.70
2018-11-27T20:53:31.025Z,19.87
2018-11-27T20:55:59.226Z,20.60
2018-11-27T20:58:27.446Z,20.53
2018-11-27T21:00:55.708Z,22.90
2018-11-27T21:03:23.943Z,21.60
2018-11-27T21:05:52.216Z,20.05
2018-11-27T21:08:20.434Z,19.57
2018-11-27T21:10:48.881Z,20.10
2018-11-27T21:13:17.072Z,19.75
2018-11-27T21:15:45.380Z,21.57
2018-11-27T21:18:13.745Z,20.85
2018-11-27T21:20:42.870Z,21.20
2018-11-27T21:23:11.152Z,20.55
2018-11-27T21:25:46.150Z,21.53
2018-11-27T21:28:16.642Z,21.37
2018-11-27T21:30:46.168Z,19.75
2018-11-27T21:33:14.354Z,22.10
2018-11-27T21:35:42.559Z,20.30
2018-11-27T21:38:10.737Z,20.60
2018-11-27T21:40:38.964Z,23.33
2018-11-27T21:43:08.288Z,22.65
2018-11-27T21:45:36.756Z,20.77
2018-11-27T21:48:04.976Z,23.10
2018-11-27T21:50:38.536Z,22.40
2018-11-27T21:53:06.789Z,21.57
2018-11-27T21:55:35.533Z,20.88
2018-11-27T21:58:03.241Z,20.90
2018-11-27T22:00:31.469Z,22.15
2018-11-27T22:02:59.683Z,22.50
2018-11-27T22:05:27.883Z,21.77
2018-11-27T22:07:56.126Z,21.65
2018-11-27T22:10:24.881Z,20.90
2018-11-27T22:12:58.128Z,21.50
2018-11-27T22:15:32.718Z,19.52
2018-11-27T22:18:01.034Z,21.77
2018-11-27T22:20:29.292Z,22.00
2018-11-27T22:22:57.505Z,20.12
2018-11-27T22:25:25.714Z,19.90
2018-11-27T22:27:53.903Z,21.25
2018-11-27T22:30:22.130Z,21.27
2018-11-27T22:32:52.568Z,20.52
2018-11-27T22:35:20.772Z,20.10
2018-11-27T22:37:49.005Z,20.85
2018-11-27T22:40:18.468Z,20.40
2018-11-27T22:42:47.105Z,21.97
2018-11-27T22:45:19.841Z,20.57
2018-11-27T22:47:48.028Z,20.43
2018-11-27T22:50:18.209Z,22.60
2018-11-27T22:52:46.431Z,20.80
2018-11-27T22:55:14.708Z,19.87
2018-11-27T22:57:42.925Z,23.13
2018-11-27T23:00:34.907Z,21.52
2018-11-27T23:03:03.164Z,21.30
2018-11-27T23:05:31.438Z,21.13
2018-11-27T23:07:59.660Z,20.17
2018-11-27T23:10:29.270Z,21.93
2018-11-27T23:12:57.498Z,21.30
2018-11-27T23:15:25.748Z,22.60
2018-11-27T23:17:53.983Z,22.35
2018-11-27T23:20:22.181Z,21.93
2018-11-27T23:22:50.386Z,21.80
2018-11-27T23:25:19.161Z,21.60
2018-11-27T23:27:47.556Z,21.70
2018-11-27T23:30:17.862Z,23.20
2018-11-27T23:32:46.156Z,22.32
2018-11-27T23:35:14.370Z,22.50
2018-11-27T23:37:42.593Z,23.13
2018-11-27T23:40:12.829Z,22.95
2018-11-27T23:42:41.219Z,23.55
2018-11-27T23:45:11.583Z,23.30
2018-11-27T23:47:39.769Z,21.03
2018-11-27T23:50:12.371Z,20.43
2018-11-27T23:52:40.597Z,22.40
2018-11-27T23:55:10.238Z,22.67
2018-11-27T23:57:38.639Z,22.67
